Time;durP1;ratioP1;P1;durP2;ratioP2;P2;SDS_P1;SDS_P2;PMS_P1;PMS_P2;Temp;Humidity;BMP_temperature;BMP_pressure;BME280_temperature;BME280_humidity;BME280_pressure;Samples;Min_cycle;Max_cycle;Signal;HPM_P1;HPM_P2
2021/10/05 00:00:21;;;;;;;;;;;;;;;;;;1019403;29;1668;-30
2021/10/05 00:00:51;;;;;;;;;;;;;;;;;;1008367;29;1295;-29
2021/10/05 00:01:22;;;;;;;;;;;;;;;;;;1008370;29;1084;-28
2021/10/05 00:01:53;;;;;;;;;;;;;;;;;;1004510;29;1190;-28
2021/10/05 00:02:23;;;;;;;;;;;;;;;;;;1005050;29;934;-32
2021/10/05 00:02:54;;;;;;;;;;;;;;;;;;1015435;29;912;-31
2021/10/05 00:03:24;;;;;;;;;;;;;;;;;;1017206;29;1114;-27
2021/10/05 00:03:55;;;;;;;;;;;;;;;;;;1015846;29;1439;-26
2021/10/05 00:04:25;;;;;;;;;;;;;;;;;;1023450;28;1028;-31
2021/10/05 00:04:56;;;;;;;;;;;;;;;;;;1024528;28;1462;-32
2021/10/05 00:05:26;;;;;;;;;;;;;;;;;;1023101;28;1605;-35
2021/10/05 00:05:56;;;;;;;;;;;;;;;;;;1022941;28;1033;-33
2021/10/05 00:06:28;;;;;;;;;;;;;;;;;;1023646;28;880;-28
2021/10/05 00:06:58;;;;;;;;;;;;;;;;;;1015925;29;998;-34
2021/10/05 00:07:28;;;;;;;;;;;;;;;;;;1016177;29;1032;-29
2021/10/05 00:07:59;;;;;;;;;;;;;;;;;;1016177;29;999;-28
2021/10/05 00:08:29;;;;;;;;;;;;;;;;;;1008515;29;705;-34
2021/10/05 00:09:01;;;;;;;;;;;;;;;;;;1015375;29;2511;-33
2021/10/05 00:09:32;;;;;;;;;;;;;;;;;;1015669;29;1304;-34
2021/10/05 00:10:04;;;;;;;;;;;;;;;;;;1016491;29;1270;-27
2021/10/05 00:10:35;;;;;;;;;;;;;;;;;;1012487;29;1066;-30
2021/10/05 00:11:06;;;;;;;;;;;;;;;;;;1012678;29;892;-32
2021/10/05 00:11:37;;;;;;;;;;;;;;;;;;1016058;29;962;-32
2021/10/05 00:12:08;;;;;;;;;;;;;;;;;;1012068;29;1506;-29
2021/10/05 00:12:39;;;;;;;;;;;;;;;;;;1012674;29;1040;-33
2021/10/05 00:13:10;;;;;;;;;;;;;;;;;;1012292;29;1169;-31
2021/10/05 00:13:41;;;;;;;;;;;;;;;;;;1011386;29;1218;-33
2021/10/05 00:14:11;;;;;;;;;;;;;;;;;;1016072;29;855;-30
2021/10/05 00:14:42;;;;;;;;;;;;;;;;;;1016463;29;962;-34
2021/10/05 00:15:12;;;;;;;;;;;;;;;;;;1016138;29;842;-33
2021/10/05 00:15:43;;;;;;;;;;;;;;;;;;1016238;29;1421;-22
2021/10/05 00:16:14;;;;;;;;;;;;;;;;;;1015504;29;1200;-34
2021/10/05 00:16:45;;;;;;;;;;;;;;;;;;1014618;29;1058;-31
2021/10/05 00:17:16;;;;;;;;;;;;;;;;;;1012539;29;1165;-32
2021/10/05 00:17:46;;;;;;;;;;;;;;;;;;1007755;29;1247;-33
2021/10/05 00:18:17;;;;;;;;;;;;;;;;;;1012431;29;946;-33
2021/10/05 00:18:49;;;;;;;;;;;;;;;;;;1011298;29;1974;-27
2021/10/05 00:19:19;;;;;;;;;;;;;;;;;;1013039;29;1103;-27
2021/10/05 00:19:50;;;;;;;;;;;;;;;;;;1012091;29;1349;-26
2021/10/05 00:20:20;;;;;;;;;;;;;;;;;;1012680;29;1168;-32
2021/10/05 00:20:51;;;;;;;;;;;;;;;;;;1011985;29;1269;-31
2021/10/05 00:21:21;;;;;;;;;;;;;;;;;;1013129;29;1002;-34
2021/10/05 00:21:51;;;;;;;;;;;;;;;;;;1012949;29;1358;-31
2021/10/05 00:22:22;;;;;;;;;;;;;;;;;;1019860;29;2011;-27
2021/10/05 00:22:53;;;;;;;;;;;;;;;;;;1015548;29;1202;-30
2021/10/05 00:23:24;;;;;;;;;;;;;;;;;;1016227;29;1249;-27
2021/10/05 00:23:54;;;;;;;;;;;;;;;;;;1012066;29;1117;-26
2021/10/05 00:24:24;;;;;;;;;;;;;;;;;;1012910;29;976;-32
2021/10/05 00:24:55;;;;;;;;;;;;;;;;;;1019556;29;1237;-31
2021/10/05 00:25:25;;;;;;;;;;;;;;;;;;1020326;29;1797;-32
2021/10/05 00:25:56;;;;;;;;;;;;;;;;;;1020246;28;1148;-33
2021/10/05 00:26:27;;;;;;;;;;;;;;;;;;1020788;28;1364;-28
2021/10/05 00:26:57;;;;;;;;;;;;;;;;;;1023261;28;1177;-27
2021/10/05 00:27:28;;;;;;;;;;;;;;;;;;1011600;29;1230;-30
2021/10/05 00:27:59;;;;;;;;;;;;;;;;;;1011729;29;1790;-28
2021/10/05 00:28:29;;;;;;;;;;;;;;;;;;1011919;29;1075;-30
2021/10/05 00:29:00;;;;;;;;;;;;;;;;;;1004639;29;1000;-27
2021/10/05 00:29:31;;;;;;;;;;;;;;;;;;1015386;29;1373;-33
2021/10/05 00:30:03;;;;;;;;;;;;;;;;;;1016286;29;1068;-32
2021/10/05 00:30:33;;;;;;;;;;;;;;;;;;1014933;29;1746;-30
2021/10/05 00:31:04;;;;;;;;;;;;;;;;;;1016030;29;993;-27
2021/10/05 00:31:34;;;;;;;;;;;;;;;;;;1020905;28;993;-29
2021/10/05 00:32:05;;;;;;;;;;;;;;;;;;1020792;28;963;-29
2021/10/05 00:32:35;;;;;;;;;;;;;;;;;;1020941;28;1016;-32
2021/10/05 00:33:06;;;;;;;;;;;;;;;;;;1023158;28;1349;-29
2021/10/05 00:33:37;;;;;;;;;;;;;;;;;;1023144;28;1101;-34
2021/10/05 00:34:08;;;;;;;;;;;;;;;;;;1024100;28;978;-31
2021/10/05 00:34:38;;;;;;;;;;;;;;;;;;1022524;28;1078;-29
2021/10/05 00:35:08;;;;;;;;;;;;;;;;;;1019543;29;1124;-33
2021/10/05 00:35:39;;;;;;;;;;;;;;;;;;1019858;29;1323;-29
2021/10/05 00:36:09;;;;;;;;;;;;;;;;;;1020502;28;1099;-33
2021/10/05 00:36:39;;;;;;;;;;;;;;;;;;1019624;28;1152;-32
2021/10/05 00:37:10;;;;;;;;;;;;;;;;;;1020452;28;1137;-34
2021/10/05 00:37:40;;;;;;;;;;;;;;;;;;1020307;28;1002;-33
2021/10/05 00:38:11;;;;;;;;;;;;;;;;;;1027795;28;1065;-33
2021/10/05 00:38:42;;;;;;;;;;;;;;;;;;1016363;29;3601;-32
2021/10/05 00:39:12;;;;;;;;;;;;;;;;;;1015695;29;1200;-31
2021/10/05 00:39:42;;;;;;;;;;;;;;;;;;1015935;29;1307;-33
2021/10/05 00:40:13;;;;;;;;;;;;;;;;;;1012011;29;1102;-29
2021/10/05 00:40:44;;;;;;;;;;;;;;;;;;1016811;29;1143;-32
2021/10/05 00:41:15;;;;;;;;;;;;;;;;;;1016049;29;1232;-28
2021/10/05 00:41:45;;;;;;;;;;;;;;;;;;1015959;29;951;-31
2021/10/05 00:42:16;;;;;;;;;;;;;;;;;;1015588;29;1353;-26
2021/10/05 00:42:47;;;;;;;;;;;;;;;;;;1019549;28;1136;-32
2021/10/05 00:43:18;;;;;;;;;;;;;;;;;;1019939;29;1228;-28
2021/10/05 00:43:49;;;;;;;;;;;;;;;;;;1019292;28;1593;-26
2021/10/05 00:44:30;;;;;;;;;;;;;;;;;;1020191;29;1155;-31
2021/10/05 00:45:00;;;;;;;;;;;;;;;;;;1020261;29;1020;-27
2021/10/05 00:45:31;;;;;;;;;;;;;;;;;;1019542;29;1123;-24
2021/10/05 00:46:01;;;;;;;;;;;;;;;;;;1018980;29;989;-27
2021/10/05 00:46:33;;;;;;;;;;;;;;;;;;1018886;29;1506;-30
2021/10/05 00:47:06;;;;;;;;;;;;;;;;;;1017834;29;1145;-30
2021/10/05 00:47:37;;;;;;;;;;;;;;;;;;1023982;28;1250;-25
2021/10/05 00:48:07;;;;;;;;;;;;;;;;;;1022674;28;890;-32
2021/10/05 00:48:37;;;;;;;;;;;;;;;;;;1024160;28;949;-32
2021/10/05 00:49:08;;;;;;;;;;;;;;;;;;1021897;28;1440;-29
2021/10/05 00:49:39;;;;;;;;;;;;;;;;;;1012248;29;1058;-27
2021/10/05 00:50:14;;;;;;;;;;;;;;;;;;1013010;29;991;-28
2021/10/05 00:50:45;;;;;;;;;;;;;;;;;;1010334;29;1105;-34
2021/10/05 00:51:15;;;;;;;;;;;;;;;;;;1013197;29;1049;-24
2021/10/05 00:51:46;;;;;;;;;;;;;;;;;;1019157;29;1449;-30
2021/10/05 00:52:18;;;;;;;;;;;;;;;;;;1018460;29;1181;-28
2021/10/05 00:52:49;;;;;;;;;;;;;;;;;;1012627;29;1085;-26
2021/10/05 00:53:20;;;;;;;;;;;;;;;;;;1011713;29;1281;-24
2021/10/05 00:53:51;;;;;;;;;;;;;;;;;;1012659;29;1155;-24
2021/10/05 00:54:22;;;;;;;;;;;;;;;;;;1013022;29;927;-26
2021/10/05 00:54:53;;;;;;;;;;;;;;;;;;1016518;28;1205;-28
2021/10/05 00:55:24;;;;;;;;;;;;;;;;;;1024483;28;865;-31
2021/10/05 00:55:54;;;;;;;;;;;;;;;;;;1018742;29;1409;-27
2021/10/05 00:56:25;;;;;;;;;;;;;;;;;;1021009;29;1277;-26
2021/10/05 00:56:56;;;;;;;;;;;;;;;;;;1015279;29;1102;-25
2021/10/05 00:57:26;;;;;;;;;;;;;;;;;;1007589;29;1001;-31
2021/10/05 00:57:57;;;;;;;;;;;;;;;;;;1019967;29;1090;-29
2021/10/05 00:58:27;;;;;;;;;;;;;;;;;;1016022;29;951;-30
2021/10/05 00:58:58;;;;;;;;;;;;;;;;;;1020245;29;1898;-33
2021/10/05 00:59:30;;;;;;;;;;;;;;;;;;1019150;29;1479;-20
2021/10/05 01:00:03;;;;;;;;;;;;;;;;;;1019081;29;1281;-32
2021/10/05 01:00:34;;;;;;;;;;;;;;;;;;1021018;29;1177;-32
2021/10/05 01:01:04;;;;;;;;;;;;;;;;;;1019395;29;946;-32
2021/10/05 01:01:35;;;;;;;;;;;;;;;;;;1014879;29;928;-34
2021/10/05 01:02:06;;;;;;;;;;;;;;;;;;1016907;29;858;-33
2021/10/05 01:02:38;;;;;;;;;;;;;;;;;;1019077;29;1010;-26
2021/10/05 01:03:08;;;;;;;;;;;;;;;;;;1020505;28;1517;-29
2021/10/05 01:03:40;;;;;;;;;;;;;;;;;;1023448;28;1299;-33
2021/10/05 01:04:11;;;;;;;;;;;;;;;;;;1015444;29;1067;-32
2021/10/05 01:04:42;;;;;;;;;;;;;;;;;;1015753;29;930;-28
2021/10/05 01:05:13;;;;;;;;;;;;;;;;;;1011870;29;2386;-29
2021/10/05 01:05:43;;;;;;;;;;;;;;;;;;1012279;29;1199;-30
2021/10/05 01:06:14;;;;;;;;;;;;;;;;;;1019829;29;1432;-29
2021/10/05 01:06:53;;;;;;;;;;;;;;;;;;1015393;29;1190;-31
2021/10/05 01:07:23;;;;;;;;;;;;;;;;;;1016356;29;1391;-27
2021/10/05 01:07:55;;;;;;;;;;;;;;;;;;1016082;29;1474;-31
2021/10/05 01:08:25;;;;;;;;;;;;;;;;;;1016483;29;1211;-30
2021/10/05 01:08:55;;;;;;;;;;;;;;;;;;1016904;29;1208;-30
2021/10/05 01:09:27;;;;;;;;;;;;;;;;;;1011001;29;1608;-31
2021/10/05 01:09:57;;;;;;;;;;;;;;;;;;1018309;29;1281;-32
2021/10/05 01:10:28;;;;;;;;;;;;;;;;;;1015873;29;1253;-33
2021/10/05 01:10:59;;;;;;;;;;;;;;;;;;1014706;29;1209;-31
2021/10/05 01:11:29;;;;;;;;;;;;;;;;;;1016377;29;1046;-29
2021/10/05 01:12:00;;;;;;;;;;;;;;;;;;1010781;29;1169;-25
2021/10/05 01:12:31;;;;;;;;;;;;;;;;;;1012715;29;807;-29
2021/10/05 01:13:01;;;;;;;;;;;;;;;;;;1011020;29;855;-31
2021/10/05 01:13:32;;;;;;;;;;;;;;;;;;1013382;29;1909;-34
2021/10/05 01:14:02;;;;;;;;;;;;;;;;;;1011598;29;1321;-32
2021/10/05 01:14:33;;;;;;;;;;;;;;;;;;1012843;29;959;-28
2021/10/05 01:15:04;;;;;;;;;;;;;;;;;;1011368;29;1029;-31
2021/10/05 01:15:35;;;;;;;;;;;;;;;;;;1013052;29;984;-33
2021/10/05 01:16:06;;;;;;;;;;;;;;;;;;1012428;29;1581;-30
2021/10/05 01:16:36;;;;;;;;;;;;;;;;;;1018376;29;1181;-29
2021/10/05 01:17:08;;;;;;;;;;;;;;;;;;1016303;29;1102;-26
2021/10/05 01:17:38;;;;;;;;;;;;;;;;;;1016059;29;1114;-27
2021/10/05 01:18:09;;;;;;;;;;;;;;;;;;1016034;29;847;-28
2021/10/05 01:18:40;;;;;;;;;;;;;;;;;;1010020;29;1045;-28
2021/10/05 01:19:10;;;;;;;;;;;;;;;;;;1017207;29;1911;-30
2021/10/05 01:19:41;;;;;;;;;;;;;;;;;;1015966;29;1081;-31
2021/10/05 01:20:13;;;;;;;;;;;;;;;;;;1015246;29;1147;-30
2021/10/05 01:20:57;;;;;;;;;;;;;;;;;;1016049;29;965;-31
2021/10/05 01:21:27;;;;;;;;;;;;;;;;;;1016671;29;955;-29
2021/10/05 01:21:58;;;;;;;;;;;;;;;;;;1019755;29;1285;-26
2021/10/05 01:22:29;;;;;;;;;;;;;;;;;;1019680;29;1337;-31
2021/10/05 01:23:00;;;;;;;;;;;;;;;;;;1011016;29;1111;-30
2021/10/05 01:23:33;;;;;;;;;;;;;;;;;;1004393;29;1002;-34
2021/10/05 01:24:23;;;;;;;;;;;;;;;;;;1003921;29;1027;-29
2021/10/05 01:24:54;;;;;;;;;;;;;;;;;;1003272;29;1318;-33
2021/10/05 01:25:24;;;;;;;;;;;;;;;;;;1016339;29;951;-30
2021/10/05 01:25:55;;;;;;;;;;;;;;;;;;1016126;29;1068;-32
2021/10/05 01:26:26;;;;;;;;;;;;;;;;;;1015205;29;1128;-32
2021/10/05 01:26:57;;;;;;;;;;;;;;;;;;1011937;29;1566;-31
2021/10/05 01:27:27;;;;;;;;;;;;;;;;;;1012209;29;992;-28
2021/10/05 01:27:59;;;;;;;;;;;;;;;;;;1012031;29;1246;-29
2021/10/05 01:28:30;;;;;;;;;;;;;;;;;;1007575;29;970;-34
2021/10/05 01:29:04;;;;;;;;;;;;;;;;;;1011809;29;1270;-29
2021/10/05 01:29:34;;;;;;;;;;;;;;;;;;1006820;29;1542;-32
2021/10/05 01:30:05;;;;;;;;;;;;;;;;;;1004795;29;1040;-32
2021/10/05 01:30:36;;;;;;;;;;;;;;;;;;1008997;29;1394;-34
2021/10/05 01:31:06;;;;;;;;;;;;;;;;;;1015773;29;969;-30
2021/10/05 01:31:38;;;;;;;;;;;;;;;;;;1019875;29;1150;-31
2021/10/05 01:32:09;;;;;;;;;;;;;;;;;;1020088;28;885;-28
2021/10/05 01:32:39;;;;;;;;;;;;;;;;;;1015775;29;923;-33
2021/10/05 01:33:10;;;;;;;;;;;;;;;;;;1016423;29;892;-31
2021/10/05 01:33:40;;;;;;;;;;;;;;;;;;1019371;29;1684;-28
2021/10/05 01:34:11;;;;;;;;;;;;;;;;;;1015107;29;998;-33
2021/10/05 01:34:41;;;;;;;;;;;;;;;;;;1014411;29;1610;-29
2021/10/05 01:35:12;;;;;;;;;;;;;;;;;;1016240;29;1127;-26
2021/10/05 01:35:43;;;;;;;;;;;;;;;;;;1015927;29;985;-29
2021/10/05 01:36:13;;;;;;;;;;;;;;;;;;1017257;29;1330;-33
2021/10/05 01:36:44;;;;;;;;;;;;;;;;;;1019112;29;1058;-31
2021/10/05 01:37:14;;;;;;;;;;;;;;;;;;1015059;29;1211;-32
2021/10/05 01:37:45;;;;;;;;;;;;;;;;;;1015351;29;941;-29
2021/10/05 01:38:16;;;;;;;;;;;;;;;;;;1012016;29;1020;-33
2021/10/05 01:38:47;;;;;;;;;;;;;;;;;;1007493;29;3597;-33
2021/10/05 01:39:23;;;;;;;;;;;;;;;;;;1010571;29;1148;-32
2021/10/05 01:39:53;;;;;;;;;;;;;;;;;;1012877;29;1407;-30
2021/10/05 01:40:24;;;;;;;;;;;;;;;;;;1024570;28;1238;-29
2021/10/05 01:40:54;;;;;;;;;;;;;;;;;;1023489;28;1016;-33
2021/10/05 01:41:25;;;;;;;;;;;;;;;;;;1023762;28;1104;-34
2021/10/05 01:41:59;;;;;;;;;;;;;;;;;;1023349;28;924;-33
2021/10/05 01:42:30;;;;;;;;;;;;;;;;;;1024493;28;1405;-31
2021/10/05 01:43:00;;;;;;;;;;;;;;;;;;1022819;28;1236;-28
2021/10/05 01:43:31;;;;;;;;;;;;;;;;;;1022633;28;988;-28
2021/10/05 01:44:01;;;;;;;;;;;;;;;;;;1023741;28;1217;-31
2021/10/05 01:44:33;;;;;;;;;;;;;;;;;;1020489;29;1034;-35
2021/10/05 01:45:04;;;;;;;;;;;;;;;;;;1019738;29;1040;-31
2021/10/05 01:45:37;;;;;;;;;;;;;;;;;;1019924;29;1225;-30
2021/10/05 01:46:13;;;;;;;;;;;;;;;;;;1020246;29;1406;-29
2021/10/05 01:46:43;;;;;;;;;;;;;;;;;;1013852;29;1345;-29
2021/10/05 01:47:14;;;;;;;;;;;;;;;;;;1015791;29;924;-30
2021/10/05 01:47:44;;;;;;;;;;;;;;;;;;1011654;29;1108;-32
2021/10/05 01:48:15;;;;;;;;;;;;;;;;;;1011455;29;1417;-31
2021/10/05 01:48:47;;;;;;;;;;;;;;;;;;1015475;29;1174;-31
2021/10/05 01:49:18;;;;;;;;;;;;;;;;;;1015788;29;1463;-30
2021/10/05 01:49:49;;;;;;;;;;;;;;;;;;1019852;29;1109;-24
2021/10/05 01:50:19;;;;;;;;;;;;;;;;;;1019767;29;1046;-29
2021/10/05 01:50:49;;;;;;;;;;;;;;;;;;1015292;29;1305;-32
2021/10/05 01:51:20;;;;;;;;;;;;;;;;;;1015646;29;938;-33
2021/10/05 01:51:51;;;;;;;;;;;;;;;;;;1022910;28;1041;-28
2021/10/05 01:52:23;;;;;;;;;;;;;;;;;;1023090;28;926;-31
2021/10/05 01:52:53;;;;;;;;;;;;;;;;;;1023512;28;1168;-35
2021/10/05 01:53:24;;;;;;;;;;;;;;;;;;1023470;28;984;-32
2021/10/05 01:53:54;;;;;;;;;;;;;;;;;;1016799;29;870;-29
2021/10/05 01:54:25;;;;;;;;;;;;;;;;;;1023113;28;1063;-30
2021/10/05 01:54:56;;;;;;;;;;;;;;;;;;1023420;28;1122;-27
2021/10/05 01:55:26;;;;;;;;;;;;;;;;;;1024479;28;1565;-30
2021/10/05 01:55:57;;;;;;;;;;;;;;;;;;1023274;28;1369;-30
2021/10/05 01:56:27;;;;;;;;;;;;;;;;;;1017928;29;950;-28
2021/10/05 01:56:57;;;;;;;;;;;;;;;;;;1015775;29;950;-31
2021/10/05 01:57:28;;;;;;;;;;;;;;;;;;1024542;28;863;-28
2021/10/05 01:57:58;;;;;;;;;;;;;;;;;;1022503;28;1240;-27
2021/10/05 01:58:29;;;;;;;;;;;;;;;;;;1022203;28;1355;-27
2021/10/05 01:59:00;;;;;;;;;;;;;;;;;;1023840;28;1914;-30
2021/10/05 01:59:30;;;;;;;;;;;;;;;;;;1020069;29;1163;-33
2021/10/05 02:00:01;;;;;;;;;;;;;;;;;;1018745;29;1203;-35
2021/10/05 02:00:31;;;;;;;;;;;;;;;;;;1019038;29;1023;-34
2021/10/05 02:01:02;;;;;;;;;;;;;;;;;;1019986;29;1669;-32
2021/10/05 02:01:32;;;;;;;;;;;;;;;;;;1020181;29;2473;-33
2021/10/05 02:02:03;;;;;;;;;;;;;;;;;;1015869;29;1041;-32
2021/10/05 02:02:34;;;;;;;;;;;;;;;;;;1016194;29;1419;-32
2021/10/05 02:03:04;;;;;;;;;;;;;;;;;;1015090;29;1122;-31
2021/10/05 02:03:35;;;;;;;;;;;;;;;;;;1015989;29;1208;-28
2021/10/05 02:04:09;;;;;;;;;;;;;;;;;;1014137;29;1586;-28
2021/10/05 02:04:40;;;;;;;;;;;;;;;;;;1015382;29;1028;-33
2021/10/05 02:05:11;;;;;;;;;;;;;;;;;;1017224;29;1543;-30
2021/10/05 02:05:41;;;;;;;;;;;;;;;;;;1023363;28;1156;-33
2021/10/05 02:06:12;;;;;;;;;;;;;;;;;;1024317;28;917;-30
2021/10/05 02:06:42;;;;;;;;;;;;;;;;;;1023568;28;1383;-30
2021/10/05 02:07:14;;;;;;;;;;;;;;;;;;1024378;28;1102;-32
2021/10/05 02:07:44;;;;;;;;;;;;;;;;;;1016207;28;1472;-29
2021/10/05 02:08:14;;;;;;;;;;;;;;;;;;1019414;29;911;-31
2021/10/05 02:08:45;;;;;;;;;;;;;;;;;;1020332;29;1011;-33
2021/10/05 02:09:16;;;;;;;;;;;;;;;;;;1019771;29;1445;-32
2021/10/05 02:09:49;;;;;;;;;;;;;;;;;;1019323;29;991;-31
2021/10/05 02:10:20;;;;;;;;;;;;;;;;;;1015914;29;1074;-32
2021/10/05 02:10:50;;;;;;;;;;;;;;;;;;1015204;29;1020;-34
2021/10/05 02:11:21;;;;;;;;;;;;;;;;;;1015953;29;978;-34
2021/10/05 02:11:53;;;;;;;;;;;;;;;;;;1015348;29;1581;-27
2021/10/05 02:12:26;;;;;;;;;;;;;;;;;;1011420;29;1240;-28
2021/10/05 02:12:57;;;;;;;;;;;;;;;;;;1013418;29;1403;-28
2021/10/05 02:13:30;;;;;;;;;;;;;;;;;;1011886;29;1390;-29
2021/10/05 02:14:00;;;;;;;;;;;;;;;;;;1005807;29;1378;-28
2021/10/05 02:14:30;;;;;;;;;;;;;;;;;;1005009;29;892;-29
2021/10/05 02:15:01;;;;;;;;;;;;;;;;;;1004501;29;1117;-29
2021/10/05 02:15:31;;;;;;;;;;;;;;;;;;1012657;29;803;-33
2021/10/05 02:16:02;;;;;;;;;;;;;;;;;;1016911;29;969;-30
2021/10/05 02:16:34;;;;;;;;;;;;;;;;;;1022737;28;1139;-33
2021/10/05 02:17:09;;;;;;;;;;;;;;;;;;1019812;29;1463;-30
2021/10/05 02:17:39;;;;;;;;;;;;;;;;;;1019976;29;1237;-34
2021/10/05 02:18:10;;;;;;;;;;;;;;;;;;1009645;29;991;-29
2021/10/05 02:18:46;;;;;;;;;;;;;;;;;;1001241;29;1189;-33
2021/10/05 02:19:16;;;;;;;;;;;;;;;;;;1007453;29;946;-31
2021/10/05 02:19:46;;;;;;;;;;;;;;;;;;1008969;29;1508;-31
2021/10/05 02:20:17;;;;;;;;;;;;;;;;;;1017545;29;1047;-28
2021/10/05 02:20:47;;;;;;;;;;;;;;;;;;1019469;29;922;-28
2021/10/05 02:21:18;;;;;;;;;;;;;;;;;;1019488;29;1934;-29
2021/10/05 02:21:49;;;;;;;;;;;;;;;;;;1015706;29;1245;-28
2021/10/05 02:22:19;;;;;;;;;;;;;;;;;;1010172;29;1443;-29
2021/10/05 02:22:50;;;;;;;;;;;;;;;;;;1016087;29;1282;-29
2021/10/05 02:23:21;;;;;;;;;;;;;;;;;;1016042;29;1256;-30
2021/10/05 02:24:52;;;;;;;;;;;;;;;;;;1014505;29;1563;-30
2021/10/05 02:24:52;;;;;;;;;;;;;;;;;;1020077;29;1247;-26
2021/10/05 02:25:22;;;;;;;;;;;;;;;;;;1019358;28;1237;-30
2021/10/05 02:25:52;;;;;;;;;;;;;;;;;;1019091;28;994;-27
2021/10/05 02:26:23;;;;;;;;;;;;;;;;;;1023145;28;1004;-30
2021/10/05 02:26:56;;;;;;;;;;;;;;;;;;1023768;28;1111;-31
2021/10/05 02:27:27;;;;;;;;;;;;;;;;;;1023784;28;1014;-31
2021/10/05 02:27:57;;;;;;;;;;;;;;;;;;1010908;29;1844;-29
2021/10/05 02:28:28;;;;;;;;;;;;;;;;;;1011543;29;1016;-30
2021/10/05 02:28:58;;;;;;;;;;;;;;;;;;1012421;29;1456;-28
2021/10/05 02:29:28;;;;;;;;;;;;;;;;;;1011581;29;1264;-32
2021/10/05 02:29:59;;;;;;;;;;;;;;;;;;1023922;28;1365;-31
2021/10/05 02:30:30;;;;;;;;;;;;;;;;;;1015957;29;1125;-27
2021/10/05 02:31:00;;;;;;;;;;;;;;;;;;1015255;29;1122;-30
2021/10/05 02:31:31;;;;;;;;;;;;;;;;;;1011384;29;1006;-27
2021/10/05 02:32:05;;;;;;;;;;;;;;;;;;1015710;28;1190;-27
2021/10/05 02:32:36;;;;;;;;;;;;;;;;;;1023939;28;956;-30
2021/10/05 02:33:06;;;;;;;;;;;;;;;;;;1024753;28;1050;-31
2021/10/05 02:33:36;;;;;;;;;;;;;;;;;;1027096;28;1347;-30
2021/10/05 02:34:07;;;;;;;;;;;;;;;;;;1020959;28;1144;-31
2021/10/05 02:34:38;;;;;;;;;;;;;;;;;;1020314;28;1560;-28
2021/10/05 02:35:09;;;;;;;;;;;;;;;;;;1020569;29;1080;-30
2021/10/05 02:35:39;;;;;;;;;;;;;;;;;;1019895;28;756;-30
2021/10/05 02:36:10;;;;;;;;;;;;;;;;;;1023480;28;1183;-32
2021/10/05 02:36:41;;;;;;;;;;;;;;;;;;1024242;28;1087;-26
2021/10/05 02:37:12;;;;;;;;;;;;;;;;;;1022958;28;1527;-29
2021/10/05 02:37:43;;;;;;;;;;;;;;;;;;1019561;29;1123;-27
2021/10/05 02:38:14;;;;;;;;;;;;;;;;;;1018227;29;1071;-35
2021/10/05 02:38:44;;;;;;;;;;;;;;;;;;1017039;29;3569;-30
2021/10/05 02:39:14;;;;;;;;;;;;;;;;;;1015317;29;1910;-31
2021/10/05 02:39:45;;;;;;;;;;;;;;;;;;1015401;29;1261;-33
2021/10/05 02:40:15;;;;;;;;;;;;;;;;;;1016198;28;1011;-25
2021/10/05 02:40:46;;;;;;;;;;;;;;;;;;1020362;29;1016;-26
2021/10/05 02:41:16;;;;;;;;;;;;;;;;;;1018826;29;1109;-26
2021/10/05 02:41:47;;;;;;;;;;;;;;;;;;1020480;29;1080;-30
2021/10/05 02:42:17;;;;;;;;;;;;;;;;;;1015315;29;932;-30
2021/10/05 02:42:47;;;;;;;;;;;;;;;;;;1011923;29;965;-28
2021/10/05 02:43:18;;;;;;;;;;;;;;;;;;1015208;29;1015;-29
2021/10/05 02:43:49;;;;;;;;;;;;;;;;;;1015406;29;922;-31
2021/10/05 02:44:19;;;;;;;;;;;;;;;;;;1020297;29;914;-34
2021/10/05 02:44:50;;;;;;;;;;;;;;;;;;1019633;29;985;-33
2021/10/05 02:45:20;;;;;;;;;;;;;;;;;;1016380;29;1420;-31
2021/10/05 02:45:50;;;;;;;;;;;;;;;;;;1016680;29;966;-31
2021/10/05 02:46:21;;;;;;;;;;;;;;;;;;1022593;28;1290;-31
2021/10/05 02:46:52;;;;;;;;;;;;;;;;;;1024119;28;1003;-32
2021/10/05 02:47:23;;;;;;;;;;;;;;;;;;1020402;29;1083;-29
2021/10/05 02:47:53;;;;;;;;;;;;;;;;;;1018622;29;985;-32
2021/10/05 02:48:24;;;;;;;;;;;;;;;;;;1019979;29;1083;-29
2021/10/05 02:48:54;;;;;;;;;;;;;;;;;;1016074;29;1609;-32
2021/10/05 02:49:25;;;;;;;;;;;;;;;;;;1015043;29;1263;-29
2021/10/05 02:49:56;;;;;;;;;;;;;;;;;;1015271;29;1056;-31
2021/10/05 02:50:26;;;;;;;;;;;;;;;;;;1012526;29;984;-32
2021/10/05 02:50:57;;;;;;;;;;;;;;;;;;1015972;29;1418;-28
2021/10/05 02:51:28;;;;;;;;;;;;;;;;;;1017083;29;972;-29
2021/10/05 02:51:58;;;;;;;;;;;;;;;;;;1015859;29;803;-31
2021/10/05 02:52:29;;;;;;;;;;;;;;;;;;1015626;29;971;-30
2021/10/05 02:52:59;;;;;;;;;;;;;;;;;;1016136;29;846;-32
2021/10/05 02:53:30;;;;;;;;;;;;;;;;;;1016535;29;875;-33
2021/10/05 02:54:00;;;;;;;;;;;;;;;;;;1015860;29;973;-36
2021/10/05 02:54:30;;;;;;;;;;;;;;;;;;1017436;29;906;-33
2021/10/05 02:55:01;;;;;;;;;;;;;;;;;;1023925;28;1086;-33
2021/10/05 02:55:32;;;;;;;;;;;;;;;;;;1023538;28;1093;-34
2021/10/05 02:56:04;;;;;;;;;;;;;;;;;;1023202;28;1064;-28
2021/10/05 02:56:34;;;;;;;;;;;;;;;;;;1011660;29;1238;-27
2021/10/05 02:57:05;;;;;;;;;;;;;;;;;;1011323;29;1159;-32
2021/10/05 02:57:35;;;;;;;;;;;;;;;;;;1011076;29;1336;-26
2021/10/05 02:58:06;;;;;;;;;;;;;;;;;;1011659;29;2578;-29
2021/10/05 02:58:37;;;;;;;;;;;;;;;;;;1019942;29;793;-29
2021/10/05 02:59:07;;;;;;;;;;;;;;;;;;1019722;29;1910;-27
2021/10/05 02:59:38;;;;;;;;;;;;;;;;;;1018924;29;1429;-29
2021/10/05 03:00:09;;;;;;;;;;;;;;;;;;1018852;29;977;-35
2021/10/05 03:00:40;;;;;;;;;;;;;;;;;;1019675;29;1331;-30
2021/10/05 03:01:10;;;;;;;;;;;;;;;;;;1012374;29;871;-34
2021/10/05 03:01:41;;;;;;;;;;;;;;;;;;1021316;28;1168;-33
2021/10/05 03:02:11;;;;;;;;;;;;;;;;;;1023307;28;1426;-31
2021/10/05 03:02:42;;;;;;;;;;;;;;;;;;1019770;29;1071;-35
2021/10/05 03:03:13;;;;;;;;;;;;;;;;;;1019428;29;1159;-32
2021/10/05 03:03:43;;;;;;;;;;;;;;;;;;1012223;29;998;-33
2021/10/05 03:04:13;;;;;;;;;;;;;;;;;;1011724;29;1062;-30
2021/10/05 03:04:44;;;;;;;;;;;;;;;;;;1015685;29;1546;-34
2021/10/05 03:05:14;;;;;;;;;;;;;;;;;;1015724;29;1345;-35
2021/10/05 03:05:45;;;;;;;;;;;;;;;;;;1023672;28;1093;-31
2021/10/05 03:06:15;;;;;;;;;;;;;;;;;;1023094;28;1159;-29
2021/10/05 03:06:46;;;;;;;;;;;;;;;;;;1024998;28;1084;-31
2021/10/05 03:07:17;;;;;;;;;;;;;;;;;;1023968;28;1575;-35
2021/10/05 03:07:48;;;;;;;;;;;;;;;;;;1019735;29;1194;-33
2021/10/05 03:08:18;;;;;;;;;;;;;;;;;;1021183;29;1143;-27
2021/10/05 03:08:52;;;;;;;;;;;;;;;;;;1018705;29;1332;-28
2021/10/05 03:09:23;;;;;;;;;;;;;;;;;;1020494;29;972;-32
2021/10/05 03:09:53;;;;;;;;;;;;;;;;;;1020265;29;1555;-28
2021/10/05 03:10:24;;;;;;;;;;;;;;;;;;1022333;28;1226;-31
2021/10/05 03:10:55;;;;;;;;;;;;;;;;;;1025442;28;1049;-31
2021/10/05 03:11:25;;;;;;;;;;;;;;;;;;1023561;28;1153;-31
2021/10/05 03:11:56;;;;;;;;;;;;;;;;;;1020349;29;1078;-26
2021/10/05 03:12:26;;;;;;;;;;;;;;;;;;1016671;29;2009;-32
2021/10/05 03:12:57;;;;;;;;;;;;;;;;;;1016001;29;1215;-29
2021/10/05 03:13:32;;;;;;;;;;;;;;;;;;1015829;29;994;-32
2021/10/05 03:14:03;;;;;;;;;;;;;;;;;;1015702;29;1305;-33
2021/10/05 03:14:33;;;;;;;;;;;;;;;;;;1017181;29;1320;-29
2021/10/05 03:15:04;;;;;;;;;;;;;;;;;;1016051;29;1079;-28
2021/10/05 03:15:34;;;;;;;;;;;;;;;;;;1020582;29;1080;-32
2021/10/05 03:16:05;;;;;;;;;;;;;;;;;;1017388;29;917;-30
2021/10/05 03:16:36;;;;;;;;;;;;;;;;;;1016813;29;1557;-33
2021/10/05 03:17:06;;;;;;;;;;;;;;;;;;1023531;28;1208;-30
2021/10/05 03:17:37;;;;;;;;;;;;;;;;;;1022963;28;1080;-33
2021/10/05 03:18:07;;;;;;;;;;;;;;;;;;1024349;28;967;-30
2021/10/05 03:18:41;;;;;;;;;;;;;;;;;;1024554;28;989;-34
2021/10/05 03:19:12;;;;;;;;;;;;;;;;;;1019306;29;1974;-27
2021/10/05 03:19:42;;;;;;;;;;;;;;;;;;1020197;29;1325;-31
2021/10/05 03:20:13;;;;;;;;;;;;;;;;;;1020914;29;1313;-28
2021/10/05 03:20:44;;;;;;;;;;;;;;;;;;1014667;29;1356;-35
2021/10/05 03:21:16;;;;;;;;;;;;;;;;;;1020451;29;1046;-28
2021/10/05 03:21:46;;;;;;;;;;;;;;;;;;1019977;29;1078;-30
2021/10/05 03:22:16;;;;;;;;;;;;;;;;;;1019829;29;1183;-31
2021/10/05 03:22:47;;;;;;;;;;;;;;;;;;1020472;29;891;-33
2021/10/05 03:23:17;;;;;;;;;;;;;;;;;;1017042;29;1288;-34
2021/10/05 03:23:48;;;;;;;;;;;;;;;;;;1024467;28;1202;-35
2021/10/05 03:24:18;;;;;;;;;;;;;;;;;;1022982;28;898;-33
2021/10/05 03:24:49;;;;;;;;;;;;;;;;;;1027762;28;1315;-33
2021/10/05 03:25:19;;;;;;;;;;;;;;;;;;1028499;28;910;-30
2021/10/05 03:25:49;;;;;;;;;;;;;;;;;;1020270;28;1560;-33
2021/10/05 03:26:20;;;;;;;;;;;;;;;;;;1027343;28;1020;-35
2021/10/05 03:26:51;;;;;;;;;;;;;;;;;;1028642;28;960;-29
2021/10/05 03:27:21;;;;;;;;;;;;;;;;;;1027355;28;1458;-30
2021/10/05 03:27:51;;;;;;;;;;;;;;;;;;1029117;28;870;-29
2021/10/05 03:28:22;;;;;;;;;;;;;;;;;;1020842;28;907;-34
2021/10/05 03:28:52;;;;;;;;;;;;;;;;;;1024295;28;1123;-31
2021/10/05 03:29:23;;;;;;;;;;;;;;;;;;1024386;28;1021;-33
2021/10/05 03:29:53;;;;;;;;;;;;;;;;;;1023599;28;993;-31
2021/10/05 03:30:24;;;;;;;;;;;;;;;;;;1024638;28;826;-34
2021/10/05 03:30:55;;;;;;;;;;;;;;;;;;1024278;28;1567;-21
2021/10/05 03:31:26;;;;;;;;;;;;;;;;;;1024683;28;1986;-31
2021/10/05 03:31:56;;;;;;;;;;;;;;;;;;1012561;29;1124;-30
2021/10/05 03:32:27;;;;;;;;;;;;;;;;;;1012015;29;1290;-28
2021/10/05 03:32:57;;;;;;;;;;;;;;;;;;1006877;29;1097;-27
2021/10/05 03:33:28;;;;;;;;;;;;;;;;;;1016605;28;1049;-29
2021/10/05 03:33:59;;;;;;;;;;;;;;;;;;1019772;29;1345;-32
2021/10/05 03:34:29;;;;;;;;;;;;;;;;;;1020701;29;1175;-31
2021/10/05 03:35:01;;;;;;;;;;;;;;;;;;1011065;29;1298;-29
2021/10/05 03:35:31;;;;;;;;;;;;;;;;;;1007845;29;1312;-34
2021/10/05 03:36:01;;;;;;;;;;;;;;;;;;1016489;29;1101;-32
2021/10/05 03:36:32;;;;;;;;;;;;;;;;;;1015002;28;1169;-33